Time;durP1;ratioP1;P1;durP2;ratioP2;P2;SDS_P1;SDS_P2;PMS_P1;PMS_P2;Temp;Humidity;BMP_temperature;BMP_pressure;BME280_temperature;BME280_humidity;BME280_pressure;Samples;Min_cycle;Max_cycle;Signal;HPM_P1;HPM_P2
2023/03/02 07:01:36;;;;;;;43.10;27.00;;;;;;;-145.79;65.31;79887.69;5322701;27;20411;-69
2023/03/02 07:04:07;;;;;;;45.20;28.92;;;;;;;-145.79;65.78;79887.69;5321958;28;20035;-68
2023/03/02 07:06:38;;;;;;;45.15;27.38;;;;;;;-145.79;65.60;79872.84;5316680;28;20038;-68
2023/03/02 07:09:10;;;;;;;42.40;29.00;;;;;;;-145.79;65.95;79896.19;5301071;28;20020;-68
2023/03/02 07:11:41;;;;;;;58.30;36.70;;;;;;;-145.79;66.30;79874.97;5304473;28;20016;-69
2023/03/02 07:14:12;;;;;;;41.80;26.88;;;;;;;-145.79;66.20;79868.63;5322162;28;20028;-68
2023/03/02 07:16:44;;;;;;;40.97;26.42;;;;;;;-145.79;66.12;79877.09;5321399;28;20486;-69
2023/03/02 07:19:15;;;;;;;43.17;26.95;;;;;;;-145.79;65.95;79866.50;5321915;28;20105;-69
2023/03/02 07:21:46;;;;;;;42.70;26.55;;;;;;;-145.79;65.79;79879.22;5322325;28;20057;-69
2023/03/02 07:24:17;;;;;;;41.72;26.77;;;;;;;-145.79;66.16;79851.66;5316451;28;20036;-69
2023/03/02 07:26:49;;;;;;;41.40;27.17;;;;;;;-145.79;65.62;79845.28;5300848;28;20482;-69
2023/03/02 07:29:20;;;;;;;45.75;28.75;;;;;;;-145.79;65.67;79847.41;5301245;28;20471;-70
2023/03/02 07:31:55;;;;;;;40.25;25.27;;;;;;;-145.79;66.06;79836.81;5300257;28;20036;-69
2023/03/02 07:34:27;;;;;;;41.28;25.58;;;;;;;-145.79;65.31;79849.53;5300900;28;20017;-70
2023/03/02 07:36:58;;;;;;;40.17;25.33;;;;;;;-145.79;65.17;79845.28;5301050;28;20027;-70
2023/03/02 07:39:30;;;;;;;43.50;28.52;;;;;;;-145.79;65.50;79819.84;5299865;28;20039;-70
2023/03/02 07:42:03;;;;;;;41.42;25.92;;;;;;;-145.79;64.70;79824.06;5301533;28;20031;-70
2023/03/02 07:44:34;;;;;;;40.58;25.50;;;;;;;-145.79;64.90;79811.34;5299822;28;20028;-70
2023/03/02 07:47:05;;;;;;;39.45;24.30;;;;;;;-145.79;64.70;79813.47;5311945;28;20031;-70
2023/03/02 07:49:37;;;;;;;40.70;25.17;;;;;;;-145.79;64.87;79838.91;5303736;28;20028;-70
2023/03/02 07:52:08;;;;;;;39.53;25.20;;;;;;;-145.79;65.16;79826.19;5300012;28;20032;-68
2023/03/02 07:54:40;;;;;;;42.10;25.55;;;;;;;-145.79;64.90;79824.06;5300362;28;20020;-69
2023/03/02 07:57:14;;;;;;;39.03;25.08;;;;;;;-145.79;64.75;79807.09;5307964;28;20031;-70
2023/03/02 07:59:46;;;;;;;45.37;27.90;;;;;;;-145.79;64.10;79811.34;5320133;28;20036;-70
2023/03/02 08:02:19;;;;;;;36.50;24.08;;;;;;;-145.79;63.87;79796.50;5319987;28;20421;-71
2023/03/02 08:04:51;;;;;;;33.97;25.50;;;;;;;-145.79;63.24;79794.38;5300229;28;20047;-70
2023/03/02 08:07:22;;;;;;;39.42;25.55;;;;;;;-145.79;63.39;79773.19;5298884;28;20075;-70
2023/03/02 08:09:53;;;;;;;40.97;25.73;;;;;;;-145.79;62.95;79771.06;5299784;28;20036;-70
2023/03/02 08:12:25;;;;;;;41.30;24.67;;;;;;;-145.79;62.62;79771.06;5305802;28;20448;-70
2023/03/02 08:14:57;;;;;;;37.42;24.80;;;;;;;-145.79;62.87;79760.44;5297411;28;20427;-69
2023/03/02 08:17:28;;;;;;;35.97;23.75;;;;;;;-145.79;64.00;79764.69;5288114;28;20070;-69
2023/03/02 08:20:00;;;;;;;36.90;24.35;;;;;;;-145.79;62.38;79762.56;5288541;28;20024;-68
2023/03/02 08:22:31;;;;;;;36.72;24.25;;;;;;;-145.79;61.73;79741.38;5294403;28;20155;-69
2023/03/02 08:25:06;;;;;;;33.58;22.25;;;;;;;-145.79;61.71;79722.28;5285469;28;20104;-69
2023/03/02 08:27:39;;;;;;;31.98;21.42;;;;;;;-145.79;61.03;79709.53;5305983;28;20413;-68
2023/03/02 08:30:11;;;;;;;35.42;22.83;;;;;;;-145.79;60.50;79713.78;5294949;28;20113;-68
2023/03/02 08:32:42;;;;;;;33.47;21.67;;;;;;;-145.79;59.98;79713.78;5288728;28;20408;-69
2023/03/02 08:35:14;;;;;;;32.30;21.75;;;;;;;-145.79;60.08;79730.75;5294076;28;20053;-73
2023/03/02 08:37:45;;;;;;;33.90;22.77;;;;;;;-145.79;60.45;79709.53;5293066;28;20031;-68
2023/03/02 08:40:16;;;;;;;35.70;22.35;;;;;;;-145.79;59.95;79696.81;5300204;28;20114;-68
2023/03/02 08:42:48;;;;;;;34.55;22.17;;;;;;;-145.79;59.68;79698.94;5291644;28;20066;-68
2023/03/02 08:45:20;;;;;;;34.72;22.20;;;;;;;-145.79;59.46;79705.31;5301257;28;20364;-68
2023/03/02 08:47:54;;;;;;;28.15;20.08;;;;;;;-145.79;58.67;79701.06;5296116;28;20043;-69
2023/03/02 08:50:25;;;;;;;36.72;22.58;;;;;;;-145.79;59.79;79675.63;5298417;28;20455;-68
2023/03/02 08:52:56;;;;;;;30.13;20.73;;;;;;;-145.79;59.11;79667.13;5284921;28;20154;-68
2023/03/02 08:55:28;;;;;;;30.60;20.70;;;;;;;-145.79;58.52;79654.41;5303063;28;20024;-67
2023/03/02 08:57:59;;;;;;;28.42;19.95;;;;;;;-145.79;57.87;79633.19;5301126;28;20380;-67
2023/03/02 09:00:30;;;;;;;317.83;218.43;;;;;;;-145.79;57.66;79628.97;5284588;28;20109;-67
2023/03/02 09:03:02;;;;;;;27.77;18.50;;;;;;;-145.79;56.25;79639.56;5292276;28;20034;-67
2023/03/02 09:05:34;;;;;;;29.77;18.70;;;;;;;-145.79;56.50;79637.44;5305223;28;20031;-68
2023/03/02 09:08:06;;;;;;;31.63;19.05;;;;;;;-145.79;56.20;79616.22;5305977;28;20374;-68
2023/03/02 09:10:38;;;;;;;27.75;19.48;;;;;;;-145.79;55.75;79620.47;5300784;28;20048;-68
2023/03/02 09:13:09;;;;;;;29.08;18.55;;;;;;;-145.79;56.31;79603.50;5284318;28;20483;-68
2023/03/02 09:15:43;;;;;;;25.15;18.35;;;;;;;-145.79;55.77;79586.53;5284149;28;20025;-69
2023/03/02 09:18:15;;;;;;;30.67;18.92;;;;;;;-145.79;54.82;79582.28;5283825;28;20392;-68
2023/03/02 09:20:50;;;;;;;25.80;17.10;;;;;;;-145.79;54.79;79569.56;5283989;28;20032;-68
2023/03/02 09:23:22;;;;;;;;;;;;;;;-145.79;54.50;79558.97;5302727;28;20050;-68
2023/03/02 09:25:54;;;;;;;27.40;19.23;;;;;;;-145.79;54.46;79573.81;5300626;28;19954;-67
2023/03/02 09:28:25;;;;;;;28.25;18.20;;;;;;;-145.79;54.62;79556.84;5298211;28;20036;-67
2023/03/02 09:30:58;;;;;;;27.50;18.05;;;;;;;-145.79;53.70;79552.59;5283443;28;20066;-67
2023/03/02 09:33:30;;;;;;;24.42;16.60;;;;;;;-145.79;53.40;79552.59;5284465;28;20109;-66
2023/03/02 09:36:13;;;;;;;24.98;16.95;;;;;;;-145.79;53.50;79539.88;5284006;28;20031;-68
2023/03/02 09:38:44;;;;;;;24.80;18.08;;;;;;;-145.79;53.43;79522.91;5283371;28;20037;-69
2023/03/02 09:41:18;;;;;;;22.23;15.82;;;;;;;-145.79;52.58;79501.72;5293378;28;20379;-69
2023/03/02 09:43:57;;;;;;;25.23;17.20;;;;;;;-145.79;51.97;79495.34;5304688;28;20036;-68
2023/03/02 09:46:55;;;;;;;27.50;16.95;;;;;;;-145.79;52.01;79472.03;5303429;28;20035;-68
2023/03/02 09:49:59;;;;;;;27.65;16.77;;;;;;;-145.79;52.17;79452.94;5293394;28;20036;-68
2023/03/02 09:52:35;;;;;;;21.75;14.93;;;;;;;-145.79;51.47;79433.84;5297357;28;20345;-67
2023/03/02 09:55:15;;;;;;;22.75;15.00;;;;;;;-145.79;51.02;79416.88;5300632;28;20036;-68
2023/03/02 09:57:47;;;;;;;23.17;14.73;;;;;;;-145.79;50.23;79399.91;5303979;28;20028;-70
2023/03/02 10:00:30;;;;;;;23.40;16.50;;;;;;;-145.79;50.12;79378.72;5302392;28;20491;-68
2023/03/02 10:03:07;;;;;;;22.67;15.60;;;;;;;-145.79;49.13;79368.09;5299264;28;20032;-67
2023/03/02 10:05:44;;;;;;;22.48;14.93;;;;;;;-145.79;49.87;79365.97;5285986;28;20103;-68
2023/03/02 10:08:19;;;;;;;18.25;13.68;;;;;;;-145.79;55.75;79321.44;5283257;28;20043;-69
2023/03/02 10:10:56;;;;;;;21.67;14.37;;;;;;;-145.79;48.96;79327.81;5281489;28;20052;-69
2023/03/02 10:13:35;;;;;;;18.77;13.30;;;;;;;-145.79;48.52;79319.31;5284999;28;20395;-68
2023/03/02 10:16:12;;;;;;;19.42;13.30;;;;;;;-145.79;46.69;79315.09;5281369;28;20059;-68
2023/03/02 10:19:01;;;;;;;17.08;12.15;;;;;;;-145.79;46.01;79304.47;5282707;28;20056;-67
2023/03/02 10:21:43;;;;;;;19.45;13.45;;;;;;;-145.79;45.88;79293.88;5280765;28;20039;-69
2023/03/02 10:24:18;;;;;;;18.50;13.68;;;;;;;-145.79;45.51;79287.50;5281834;28;20150;-68
2023/03/02 10:26:54;;;;;;;18.20;12.68;;;;;;;-145.79;46.56;79272.66;5280545;28;20555;-68
2023/03/02 10:29:37;;;;;;;;;;;;;;;-145.79;45.70;79264.19;5284767;28;20111;-67
2023/03/02 10:32:08;;;;;;;21.00;12.68;;;;;;;-145.79;45.97;79257.81;5281691;28;19924;-68
2023/03/02 10:34:40;;;;;;;17.02;12.45;;;;;;;-145.79;45.21;79242.97;5283878;28;20028;-69
2023/03/02 10:37:15;;;;;;;88.50;69.18;;;;;;;-145.79;44.73;79238.75;5284766;28;20024;-68
2023/03/02 10:39:47;;;;;;;19.35;13.25;;;;;;;-145.79;44.64;79242.97;5280776;28;20123;-68
2023/03/02 10:42:39;;;;;;;18.23;12.25;;;;;;;-145.79;44.37;79242.97;5282151;28;20183;-68
2023/03/02 10:45:29;;;;;;;16.38;12.57;;;;;;;-145.79;44.54;79242.97;5282857;28;20023;-69
2023/03/02 10:48:10;;;;;;;17.23;11.80;;;;;;;-145.79;44.21;79238.75;5291433;28;20028;-69
2023/03/02 10:50:42;;;;;;;17.40;11.30;;;;;;;-145.79;43.28;79238.75;5303795;28;20123;-68
2023/03/02 10:53:17;;;;;;;16.85;12.00;;;;;;;-145.79;43.61;79230.25;5297966;28;20013;-69
2023/03/02 10:55:51;;;;;;;15.65;11.70;;;;;;;-145.79;44.01;79217.53;5303271;28;20047;-68
2023/03/02 10:58:32;;;;;;;19.40;12.00;;;;;;;-145.79;44.08;79202.69;5290824;28;20448;-68
2023/03/02 11:01:13;;;;;;;16.73;13.38;;;;;;;-145.79;44.15;79185.72;5282308;28;20056;-69
2023/03/02 11:03:59;;;;;;;17.33;12.07;;;;;;;-145.79;44.32;79179.38;5282219;28;20021;-68
2023/03/02 11:06:34;;;;;;;17.38;12.23;;;;;;;-145.79;44.24;79168.75;5303307;28;20102;-69
2023/03/02 11:09:06;;;;;;;17.65;12.60;;;;;;;-145.79;44.57;79160.28;5299705;28;20028;-68
2023/03/02 11:11:38;;;;;;;17.42;11.95;;;;;;;-145.79;43.39;79153.91;5303152;28;20028;-69
2023/03/02 11:14:14;;;;;;;15.43;11.40;;;;;;;-145.79;43.14;79156.03;5303960;28;20069;-70
2023/03/02 11:16:45;;;;;;;16.50;11.95;;;;;;;-145.79;43.65;79149.69;5283321;28;20036;-69
2023/03/02 11:19:39;;;;;;;15.05;11.90;;;;;;;-145.79;44.37;79134.84;5282922;28;20468;-68
2023/03/02 11:22:35;;;;;;;16.83;13.13;;;;;;;-145.79;43.90;79124.22;5292200;28;20048;-69
2023/03/02 11:25:14;;;;;;;17.08;12.88;;;;;;;-145.79;44.19;79117.88;5298057;28;20025;-69
2023/03/02 11:27:48;;;;;;;18.23;12.63;;;;;;;-145.79;46.17;79092.41;5286387;28;20429;-68
2023/03/02 11:30:22;;;;;;;14.52;11.85;;;;;;;-145.79;43.82;79096.66;5287575;28;20024;-69
2023/03/02 11:33:01;;;;;;;18.75;11.75;;;;;;;-145.79;43.96;79081.81;5289414;28;20059;-68
2023/03/02 11:35:49;;;;;;;16.85;12.18;;;;;;;-145.79;43.95;79064.84;5298403;28;20024;-68
2023/03/02 11:38:39;;;;;;;16.75;13.50;;;;;;;-145.79;44.57;79066.97;5297949;28;20502;-68
2023/03/02 11:41:31;;;;;;;19.95;14.57;;;;;;;-145.79;44.77;79064.84;5282614;28;20024;-69
2023/03/02 11:44:13;;;;;;;22.60;17.88;;;;;;;-145.79;44.75;79054.25;5288902;28;20035;-69
2023/03/02 11:46:48;;;;;;;20.33;14.68;;;;;;;-145.79;44.73;79054.25;5304914;28;20008;-69
2023/03/02 11:49:23;;;;;;;24.85;16.30;;;;;;;-145.79;44.78;79045.78;5307726;28;20498;-69
2023/03/02 11:51:57;;;;;;;21.85;15.07;;;;;;;-145.79;44.30;79052.13;5289534;28;20023;-69
2023/03/02 11:54:42;;;;;;;19.45;14.63;;;;;;;-145.79;44.60;79047.91;5286039;28;20032;-68
2023/03/02 11:57:30;;;;;;;22.48;15.52;;;;;;;-145.79;44.81;79026.69;5305036;28;20032;-68
2023/03/02 12:00:10;;;;;;;20.52;15.05;;;;;;;-145.79;44.76;79020.31;5305273;28;20052;-69
2023/03/02 12:02:41;;;;;;;17.88;14.60;;;;;;;-145.79;44.41;79013.97;5307104;28;20031;-68
2023/03/02 12:05:28;;;;;;;18.55;14.20;;;;;;;-145.79;44.46;78997.00;5287861;28;20025;-68
2023/03/02 12:08:05;;;;;;;18.50;14.93;;;;;;;-145.79;44.74;78977.91;5285882;28;20491;-67
2023/03/02 12:10:40;;;;;;;19.20;13.63;;;;;;;-145.79;43.94;78975.78;5291653;28;20027;-67
2023/03/02 12:13:25;;;;;;;16.13;12.80;;;;;;;-145.79;44.45;78960.94;5289044;28;20111;-67
2023/03/02 12:15:56;;;;;;;16.50;13.52;;;;;;;-145.79;43.65;78946.09;5285614;28;20060;-68
2023/03/02 12:18:42;;;;;;;19.73;14.10;;;;;;;-145.79;44.26;78933.38;5285663;28;20109;-68
2023/03/02 12:21:17;;;;;;;19.27;14.40;;;;;;;-145.79;43.54;78922.78;5285080;28;20493;-68
2023/03/02 12:23:49;;;;;;;18.52;13.13;;;;;;;-145.79;42.76;78927.03;5285574;28;20028;-68
2023/03/02 12:26:20;;;;;;;15.93;11.98;;;;;;;-145.79;43.19;78924.91;5284962;28;20578;-69
2023/03/02 12:29:09;;;;;;;21.95;16.02;;;;;;;-145.79;42.94;78905.81;5285948;28;20036;-68
2023/03/02 12:31:50;;;;;;;17.55;13.43;;;;;;;-145.79;42.52;78882.50;5285096;28;20024;-68
2023/03/02 12:34:24;;;;;;;14.88;12.10;;;;;;;-145.79;42.33;78874.00;5284815;28;20060;-69
2023/03/02 12:37:02;;;;;;;17.20;12.68;;;;;;;-145.79;43.45;78869.78;5285585;28;20032;-68
2023/03/02 12:39:55;;;;;;;17.17;12.82;;;;;;;-145.79;42.51;78857.06;5285431;28;20371;-69
2023/03/02 12:42:50;;;;;;;14.68;11.23;;;;;;;-145.79;44.01;78823.13;5284416;28;20073;-69
2023/03/02 12:45:39;;;;;;;16.75;12.80;;;;;;;-145.79;42.49;78801.91;5285605;28;20039;-70
2023/03/02 12:48:34;;;;;;;16.20;12.07;;;;;;;-145.79;41.43;78789.19;5291829;28;20027;-69
2023/03/02 12:51:22;;;;;;;18.75;15.43;;;;;;;-145.79;41.60;78789.19;5301239;28;20031;-69
2023/03/02 12:54:15;;;;;;;17.25;12.65;;;;;;;-145.79;41.77;78768.00;5284758;28;20078;-68
2023/03/02 12:56:47;;;;;;;14.18;12.70;;;;;;;-145.79;41.66;78755.28;5284880;28;20032;-70
2023/03/02 12:59:24;;;;;;;62.47;44.53;;;;;;;-145.79;41.20;78725.59;5284153;28;20053;-70
2023/03/02 13:02:18;;;;;;;16.40;12.57;;;;;;;-145.79;40.59;78717.09;5284132;28;20501;-69
2023/03/02 13:05:02;;;;;;;15.43;12.27;;;;;;;-145.79;41.17;78708.63;5285577;28;20028;-69
2023/03/02 13:07:41;;;;;;;14.52;12.48;;;;;;;-145.79;41.53;78685.31;5284556;28;20025;-70
2023/03/02 13:10:29;;;;;;;14.68;11.10;;;;;;;-145.79;40.57;78687.41;5300882;28;20123;-69
2023/03/02 13:13:02;;;;;;;13.95;12.40;;;;;;;-145.79;39.60;78683.19;5305751;28;20461;-69
2023/03/02 13:15:34;;;;;;;12.02;10.32;;;;;;;-145.79;47.29;78640.78;5294336;28;20052;-68
2023/03/02 13:18:08;;;;;;;13.27;11.15;;;;;;;-145.79;40.93;78634.41;5287729;28;20476;-68
2023/03/02 13:20:40;;;;;;;11.43;9.83;;;;;;;-145.79;45.62;78596.25;5288234;28;20044;-67
2023/03/02 13:23:13;;;;;;;13.15;10.90;;;;;;;-145.79;43.37;78628.06;5283463;28;20025;-68
2023/03/02 13:25:55;;;;;;;12.27;10.20;;;;;;;-145.79;40.88;78585.66;5288371;28;20039;-68
2023/03/02 13:28:28;;;;;;;14.80;10.68;;;;;;;-145.79;39.81;78585.66;5284072;28;20059;-67
2023/03/02 13:31:21;;;;;;;54.00;34.63;;;;;;;-145.79;39.58;78555.97;5287161;28;20032;-70
2023/03/02 13:33:55;;;;;;;16.67;9.90;;;;;;;-145.79;40.20;78551.72;5304261;28;20085;-68
2023/03/02 13:36:32;;;;;;;15.27;11.35;;;;;;;-145.79;38.53;78545.38;5304232;28;20024;-68
2023/03/02 13:39:07;;;;;;;13.45;9.98;;;;;;;-145.79;43.31;78502.97;5304097;28;20400;-68
2023/03/02 13:41:39;;;;;;;14.57;10.80;;;;;;;-145.79;39.91;78515.69;5305215;28;20028;-69
2023/03/02 13:44:20;;;;;;;26.45;20.85;;;;;;;-145.79;39.30;78515.69;5287192;28;20028;-69
2023/03/02 13:46:51;;;;;;;14.02;12.40;;;;;;;-145.79;38.70;78515.69;5289529;28;20032;-68
2023/03/02 13:49:31;;;;;;;14.32;11.70;;;;;;;-145.79;39.75;78488.13;5286004;28;20023;-68
2023/03/02 13:52:21;;;;;;;13.43;10.70;;;;;;;-145.79;41.26;78488.13;5282929;28;20124;-68
2023/03/02 13:54:53;;;;;;;10.88;8.75;;;;;;;-145.79;39.34;78481.75;5300341;28;20035;-68
2023/03/02 13:57:31;;;;;;;10.00;8.25;;;;;;;-145.79;40.37;78483.88;5295192;28;20020;-68
2023/03/02 14:00:03;;;;;;;10.35;8.88;;;;;;;-145.79;38.58;78483.88;5283995;28;20045;-68
2023/03/02 14:02:35;;;;;;;12.85;9.13;;;;;;;-145.79;37.27;78494.47;5293797;28;20038;-68
2023/03/02 14:05:14;;;;;;;10.60;9.00;;;;;;;-145.79;37.27;78466.91;5291057;28;20033;-68
2023/03/02 14:07:46;;;;;;;12.82;9.82;;;;;;;-145.79;38.77;78488.13;5284437;28;20486;-68
2023/03/02 14:10:19;;;;;;;10.15;9.05;;;;;;;-145.79;40.63;78483.88;5304315;28;20028;-69
2023/03/02 14:13:08;;;;;;;26.33;22.23;;;;;;;-145.79;37.11;78494.47;5303035;28;20490;-68
2023/03/02 14:15:47;;;;;;;13.55;9.82;;;;;;;-145.79;38.69;78471.16;5300163;28;20066;-70
2023/03/02 14:18:34;;;;;;;11.73;9.20;;;;;;;-145.79;36.91;78466.91;5301759;28;20348;-69
2023/03/02 14:21:13;;;;;;;11.85;9.95;;;;;;;-145.79;36.70;78464.78;5303550;28;20074;-70
2023/03/02 14:23:45;;;;;;;26.65;19.92;;;;;;;-145.79;41.73;78439.34;5304033;28;20027;-70
2023/03/02 14:26:28;;;;;;;12.25;9.77;;;;;;;-145.79;37.63;78445.72;5303810;28;20375;-71
2023/03/02 14:29:05;;;;;;;13.27;9.98;;;;;;;-145.79;39.67;78441.47;5288797;28;20035;-70
2023/03/02 14:31:36;;;;;;;10.90;8.73;;;;;;;-145.79;39.73;78439.34;5286694;28;20033;-71
2023/03/02 14:34:11;;;;;;;13.07;9.15;;;;;;;-145.79;36.67;78469.03;5294240;28;20047;-71
2023/03/02 14:36:45;;;;;;;10.63;8.20;;;;;;;-145.79;38.24;78449.94;5285607;28;20032;-70
2023/03/02 14:39:38;;;;;;;10.90;8.93;;;;;;;-145.79;40.34;78433.00;5303750;28;20331;-70
2023/03/02 14:42:17;;;;;;;10.27;7.95;;;;;;;-145.79;37.96;78445.72;5303487;28;20360;-70
2023/03/02 14:44:49;;;;;;;13.55;8.82;;;;;;;-145.79;36.94;78454.19;5303259;28;20020;-70
2023/03/02 14:47:21;;;;;;;9.95;7.65;;;;;;;-145.79;37.97;78422.38;5301997;28;20035;-70
2023/03/02 14:49:53;;;;;;;12.57;8.32;;;;;;;-145.79;36.21;78416.03;5292142;28;20021;-70
2023/03/02 14:52:33;;;;;;;16.08;14.32;;;;;;;-145.79;37.61;78403.31;5301357;28;20022;-70
2023/03/02 14:55:11;;;;;;;10.93;8.43;;;;;;;-145.79;36.79;78407.53;5301333;28;20488;-70
2023/03/02 14:57:43;;;;;;;11.98;7.85;;;;;;;-145.79;36.45;78403.31;5300457;28;20020;-69
2023/03/02 15:00:14;;;;;;;24.60;18.98;;;;;;;-145.79;38.80;78369.38;5301858;28;20070;-70
2023/03/02 15:02:47;;;;;;;16.15;9.68;;;;;;;-145.79;38.06;78365.16;5299146;28;20028;-70
2023/03/02 15:05:18;;;;;;;9.60;8.13;;;;;;;-145.79;35.46;78384.22;5284325;28;20106;-70
2023/03/02 15:07:52;;;;;;;10.27;8.45;;;;;;;-145.79;37.70;78369.38;5295171;28;20032;-70
2023/03/02 15:10:23;;;;;;;12.50;9.30;;;;;;;-145.79;35.87;78386.34;5295002;28;20028;-69
2023/03/02 15:12:54;;;;;;;13.38;8.63;;;;;;;-145.79;36.43;78382.09;5288021;28;20371;-70
2023/03/02 15:15:26;;;;;;;11.75;8.70;;;;;;;-145.79;35.87;78369.38;5297557;28;20519;-70
2023/03/02 15:17:57;;;;;;;11.25;8.65;;;;;;;-145.79;37.73;78373.63;5282626;28;20028;-70
2023/03/02 15:20:29;;;;;;;11.20;8.48;;;;;;;-145.79;37.35;78373.63;5286242;28;20126;-71
2023/03/02 15:23:00;;;;;;;10.57;8.15;;;;;;;-145.79;35.84;78375.75;5286691;28;20013;-70
2023/03/02 15:25:32;;;;;;;9.63;7.50;;;;;;;-145.79;36.85;78365.16;5296947;28;20107;-72
2023/03/02 15:28:03;;;;;;;9.95;8.60;;;;;;;-145.79;37.79;78360.91;5301217;28;20035;-72
2023/03/02 15:30:35;;;;;;;10.60;8.07;;;;;;;-145.79;39.03;78352.44;5285683;28;20483;-74
2023/03/02 15:33:06;;;;;;;20.67;16.58;;;;;;;-145.79;36.38;78363.03;5286699;28;20027;-70
2023/03/02 15:35:38;;;;;;;10.18;8.00;;;;;;;-145.79;36.74;78363.03;5306849;28;20069;-70
2023/03/02 15:38:10;;;;;;;11.20;8.00;;;;;;;-145.79;38.85;78375.75;5304031;28;20028;-71
2023/03/02 15:40:41;;;;;;;11.60;7.43;;;;;;;-145.79;39.87;78369.38;5297200;28;20498;-71
2023/03/02 15:43:12;;;;;;;9.43;7.63;;;;;;;-145.79;38.96;78375.75;5285890;28;20025;-70
2023/03/02 15:45:47;;;;;;;12.88;8.75;;;;;;;-145.79;41.00;78360.91;5297730;28;20451;-70
2023/03/02 15:48:18;;;;;;;12.38;9.30;;;;;;;-145.79;37.88;78418.16;5296936;28;20052;-71
2023/03/02 15:51:01;;;;;;;9.32;6.90;;;;;;;-145.79;40.17;78394.81;5306675;28;20059;-70
2023/03/02 15:53:37;;;;;;;9.82;8.23;;;;;;;-145.79;38.95;78416.03;5286965;28;20039;-70
2023/03/02 15:56:13;;;;;;;12.40;9.45;;;;;;;-145.79;41.46;78424.50;5285953;28;20082;-70
2023/03/02 15:58:48;;;;;;;12.65;11.10;;;;;;;-145.79;41.13;78445.72;5290096;28;20028;-71
2023/03/02 16:01:20;;;;;;;13.05;10.27;;;;;;;-145.79;41.08;78471.16;5304955;28;20375;-70
2023/03/02 16:03:52;;;;;;;16.58;12.38;;;;;;;-145.79;41.26;78490.22;5295711;28;20024;-71
2023/03/02 16:06:26;;;;;;;10.90;9.27;;;;;;;-145.79;42.42;78490.22;5285868;28;20471;-71
2023/03/02 16:08:57;;;;;;;15.95;10.70;;;;;;;-145.79;42.09;78488.13;5301281;28;20119;-70
2023/03/02 16:11:28;;;;;;;16.98;11.30;;;;;;;-145.79;42.42;78505.06;5295345;28;20634;-70
2023/03/02 16:14:00;;;;;;;14.60;11.15;;;;;;;-145.79;42.15;78515.69;5304454;28;20030;-68
2023/03/02 16:16:31;;;;;;;12.43;9.95;;;;;;;-145.79;42.78;78536.88;5291506;28;20085;-68
2023/03/02 16:19:02;;;;;;;12.73;10.90;;;;;;;-145.79;45.11;78522.03;5290227;28;20115;-69
2023/03/02 16:21:34;;;;;;;13.63;9.27;;;;;;;-145.79;44.73;78513.56;5287911;28;20031;-68
2023/03/02 16:24:06;;;;;;;13.32;10.00;;;;;;;-145.79;42.92;78560.19;5306899;28;20031;-69
2023/03/02 16:26:40;;;;;;;13.77;9.77;;;;;;;-145.79;44.21;78543.25;5305744;28;20043;-69
2023/03/02 16:29:12;;;;;;;13.80;11.35;;;;;;;-145.79;42.90;78560.19;5287107;28;20519;-68
2023/03/02 16:31:46;;;;;;;13.02;10.05;;;;;;;-145.79;43.23;78566.56;5285128;28;20123;-68
